Time;durP1;ratioP1;P1;durP2;ratioP2;P2;SDS_P1;SDS_P2;PMS_P1;PMS_P2;Temp;Humidity;BMP_temperature;BMP_pressure;BME280_temperature;BME280_humidity;BME280_pressure;Samples;Min_cycle;Max_cycle;Signal;HPM_P1;HPM_P2
2022/09/06 00:00:40;;;;;;;5.47;2.90;;;22.20;99.90;;;;;;5009878;28;20053;-67
2022/09/06 00:04:02;;;;;;;12.55;3.40;;;22.10;99.90;;;;;;5010178;28;20378;-68
2022/09/06 00:07:06;;;;;;;6.57;2.83;;;22.10;99.90;;;;;;5011043;28;20045;-68
2022/09/06 00:10:10;;;;;;;5.65;2.83;;;22.00;99.90;;;;;;5010442;28;20523;-67
2022/09/06 00:13:14;;;;;;;9.98;3.53;;;22.00;99.90;;;;;;5010000;28;20044;-67
2022/09/06 00:16:24;;;;;;;9.35;3.88;;;22.00;99.90;;;;;;5009979;28;20403;-67
2022/09/06 00:19:47;;;;;;;10.82;4.10;;;22.00;99.90;;;;;;5010271;28;20048;-68
2022/09/06 00:23:10;;;;;;;9.38;3.83;;;22.00;99.90;;;;;;5010551;28;20396;-68
2022/09/06 00:26:14;;;;;;;6.28;4.40;;;22.00;99.90;;;;;;5010588;28;20401;-67
2022/09/06 00:29:18;;;;;;;8.43;5.05;;;21.90;99.90;;;;;;5010967;28;20044;-67
2022/09/06 00:32:22;;;;;;;7.05;4.32;;;21.80;99.90;;;;;;5016612;28;20053;-67
2022/09/06 00:35:46;;;;;;;11.98;4.03;;;21.80;99.90;;;;;;5017042;28;20045;-67
2022/09/06 00:39:09;;;;;;;7.88;4.30;;;21.80;99.90;;;;;;5016913;28;20044;-67
2022/09/06 00:42:31;;;;;;;15.82;4.72;;;21.70;99.90;;;;;;5016604;28;20049;-67
2022/09/06 00:45:54;;;;;;;7.95;5.47;;;21.50;99.90;;;;;;5016371;28;20396;-67
2022/09/06 00:49:03;;;;;;;10.60;6.07;;;21.30;99.90;;;;;;5016906;28;20048;-67
2022/09/06 00:52:12;;;;;;;13.07;6.57;;;21.20;99.90;;;;;;5016629;28;20037;-67
2022/09/06 00:55:35;;;;;;;10.73;6.18;;;21.20;99.90;;;;;;5016391;28;20400;-68
2022/09/06 00:58:38;;;;;;;10.63;6.00;;;21.00;99.90;;;;;;5016271;28;20507;-67
2022/09/06 01:01:42;;;;;;;14.15;5.85;;;20.90;99.90;;;;;;5016030;28;20052;-69
2022/09/06 01:04:50;;;;;;;7.55;5.07;;;20.80;99.90;;;;;;5015789;28;20068;-69
2022/09/06 01:08:07;;;;;;;15.55;5.68;;;20.70;99.90;;;;;;5016696;28;20044;-68
2022/09/06 01:11:38;;;;;;;9.48;6.18;;;20.60;99.90;;;;;;5016649;28;20049;-68
2022/09/06 01:15:04;;;;;;;14.88;6.03;;;20.50;99.90;;;;;;5015954;28;20037;-68
2022/09/06 01:19:13;;;;;;;12.45;7.00;;;20.40;99.90;;;;;;5016500;28;20432;-68
2022/09/06 01:22:20;;;;;;;11.63;6.40;;;20.40;99.90;;;;;;5016845;28;20045;-68
2022/09/06 01:25:48;;;;;;;15.40;7.30;;;20.40;99.90;;;;;;5016091;28;20072;-68
2022/09/06 01:28:53;;;;;;;17.70;7.32;;;20.40;99.90;;;;;;5016540;28;20401;-68
2022/09/06 01:32:06;;;;;;;14.20;7.53;;;20.40;99.90;;;;;;5016538;28;20053;-69
2022/09/06 01:35:39;;;;;;;9.40;6.88;;;20.50;99.90;;;;;;5015802;28;20570;-68
2022/09/06 01:38:43;;;;;;;14.23;8.25;;;20.50;99.90;;;;;;5016489;28;20382;-68
2022/09/06 01:41:48;;;;;;;12.43;7.88;;;20.50;99.90;;;;;;5013277;28;20052;-68
2022/09/06 01:44:58;;;;;;;12.70;7.47;;;20.50;99.90;;;;;;5012902;28;20060;-68
2022/09/06 01:48:15;;;;;;;12.30;7.55;;;20.50;99.90;;;;;;5013458;28;20049;-68
2022/09/06 01:51:32;;;;;;;10.85;8.50;;;20.50;99.90;;;;;;5012921;28;20385;-68
2022/09/06 01:54:58;;;;;;;23.30;8.13;;;20.50;99.90;;;;;;5012786;28;20323;-68
2022/09/06 01:58:14;;;;;;;15.80;7.80;;;20.50;99.90;;;;;;5012810;28;20045;-68
2022/09/06 02:01:30;;;;;;;12.95;7.78;;;20.40;99.90;;;;;;5012737;28;20747;-68
2022/09/06 02:05:08;;;;;;;13.77;7.50;;;20.30;99.90;;;;;;5011724;28;20071;-68
2022/09/06 02:08:53;;;;;;;14.75;8.43;;;20.30;99.90;;;;;;5012668;28;20049;-68
2022/09/06 02:12:18;;;;;;;13.40;8.43;;;20.30;99.90;;;;;;4970841;28;20050;-68
2022/09/06 02:15:30;;;;;;;25.02;9.23;;;20.30;99.90;;;;;;4975726;28;20058;-68
2022/09/06 02:18:41;;;;;;;13.18;8.43;;;20.20;99.90;;;;;;5012590;28;20049;-68
2022/09/06 02:22:06;;;;;;;12.07;7.45;;;20.20;99.90;;;;;;5012495;28;20385;-68
2022/09/06 02:25:18;;;;;;;12.80;6.72;;;20.10;99.90;;;;;;5012615;28;20511;-68
2022/09/06 02:28:23;;;;;;;12.43;7.28;;;20.10;99.90;;;;;;5012495;28;20048;-68
2022/09/06 02:31:49;;;;;;;11.18;6.88;;;20.10;99.90;;;;;;5012340;28;20068;-68
2022/09/06 02:34:55;;;;;;;10.27;6.78;;;20.00;99.90;;;;;;5011402;28;20041;-68
2022/09/06 02:38:00;;;;;;;9.02;6.38;;;20.00;99.90;;;;;;5011510;28;20049;-68
2022/09/06 02:41:06;;;;;;;12.38;5.82;;;20.00;99.90;;;;;;5012791;28;20381;-68
2022/09/06 02:44:11;;;;;;;15.27;6.47;;;20.10;99.90;;;;;;5011136;28;20500;-69
2022/09/06 02:47:15;;;;;;;13.98;8.20;;;20.00;99.90;;;;;;5012303;28;20453;-68
2022/09/06 02:50:19;;;;;;;13.82;6.65;;;20.00;99.90;;;;;;5011650;28;20400;-68
2022/09/06 02:53:23;;;;;;;11.90;7.43;;;19.90;99.90;;;;;;5011492;28;20053;-68
2022/09/06 02:56:46;;;;;;;12.13;6.85;;;19.90;99.90;;;;;;5011864;28;20045;-68
2022/09/06 02:59:50;;;;;;;13.05;7.40;;;19.80;99.90;;;;;;5011532;28;20044;-68
2022/09/06 03:02:55;;;;;;;11.65;7.28;;;19.80;99.90;;;;;;5011933;28;20389;-68
2022/09/06 03:05:59;;;;;;;14.18;8.60;;;19.70;99.90;;;;;;5011688;28;20045;-68
2022/09/06 03:09:22;;;;;;;16.77;7.45;;;19.70;99.90;;;;;;5011393;28;20423;-68
2022/09/06 03:13:04;;;;;;;14.40;7.38;;;19.70;99.90;;;;;;5012027;28;20057;-68
2022/09/06 03:16:08;;;;;;;11.50;7.07;;;19.70;99.90;;;;;;5011368;28;20056;-68
2022/09/06 03:19:12;;;;;;;16.13;8.85;;;19.60;99.90;;;;;;5010280;28;20056;-68
2022/09/06 03:22:16;;;;;;;13.80;8.10;;;19.70;99.90;;;;;;5011724;28;20204;-68
2022/09/06 03:25:20;;;;;;;17.65;9.00;;;19.70;99.90;;;;;;5010628;28;20052;-68
2022/09/06 03:28:25;;;;;;;16.30;8.45;;;19.70;99.90;;;;;;5011487;28;20495;-68
2022/09/06 03:31:29;;;;;;;10.70;7.68;;;19.60;99.90;;;;;;5011074;28;20037;-68
2022/09/06 03:34:33;;;;;;;16.52;7.32;;;19.60;99.90;;;;;;5010587;28;20547;-69
2022/09/06 03:37:37;;;;;;;17.70;7.20;;;19.60;99.90;;;;;;5011554;28;20069;-68
2022/09/06 03:40:44;;;;;;;12.90;7.32;;;19.60;99.90;;;;;;5011056;28;20321;-68
2022/09/06 03:47:10;;;;;;;11.85;7.03;;;19.50;99.90;;;;;;5010955;28;20049;-68
2022/09/06 03:50:13;;;;;;;15.15;6.82;;;19.50;99.90;;;;;;5011374;28;20044;-68
2022/09/06 03:53:18;;;;;;;13.82;6.57;;;19.50;99.90;;;;;;5010278;28;20049;-68
2022/09/06 03:56:22;;;;;;;13.68;7.60;;;19.50;99.90;;;;;;5010991;28;20053;-68
2022/09/06 03:59:26;;;;;;;8.05;6.90;;;19.50;99.90;;;;;;5011030;28;20110;-69
2022/09/06 04:02:29;;;;;;;13.68;6.95;;;19.40;99.90;;;;;;5021203;28;20045;-68
2022/09/06 04:05:34;;;;;;;14.00;7.00;;;19.40;99.90;;;;;;5009973;28;20057;-68
2022/09/06 04:08:38;;;;;;;15.85;7.65;;;19.40;99.90;;;;;;5010616;28;20049;-68
2022/09/06 04:11:42;;;;;;;12.23;7.20;;;19.30;99.90;;;;;;5010541;28;20049;-69
2022/09/06 04:14:46;;;;;;;12.88;8.10;;;19.30;99.90;;;;;;5010351;28;20061;-68
2022/09/06 04:17:50;;;;;;;14.77;9.73;;;19.20;99.90;;;;;;5010561;28;20048;-69
2022/09/06 04:20:55;;;;;;;16.48;10.77;;;19.10;99.90;;;;;;5010808;28;20033;-68
2022/09/06 04:23:59;;;;;;;13.25;8.52;;;19.00;99.90;;;;;;5010113;28;20060;-68
2022/09/06 04:27:03;;;;;;;19.48;11.82;;;18.80;99.90;;;;;;5010699;28;20045;-69
2022/09/06 04:30:08;;;;;;;18.73;11.52;;;18.70;99.90;;;;;;5010718;28;20504;-68
2022/09/06 04:33:31;;;;;;;16.73;11.80;;;18.70;99.90;;;;;;5010811;28;20508;-69
2022/09/06 04:36:36;;;;;;;22.65;11.65;;;18.70;99.90;;;;;;5010861;28;20045;-68
2022/09/06 04:39:39;;;;;;;17.98;9.20;;;18.60;99.90;;;;;;5010466;28;20049;-68
2022/09/06 04:42:43;;;;;;;19.95;7.80;;;18.60;99.90;;;;;;5010854;28;20057;-68
2022/09/06 04:45:48;;;;;;;33.47;8.13;;;18.60;99.90;;;;;;5010842;28;20049;-68
2022/09/06 04:48:54;;;;;;;13.82;7.82;;;18.60;99.90;;;;;;5011143;28;20064;-68
2022/09/06 04:51:57;;;;;;;14.57;7.47;;;18.60;99.90;;;;;;5011090;28;20053;-68
2022/09/06 04:55:01;;;;;;;15.98;7.55;;;18.60;99.90;;;;;;5010628;28;20056;-68
2022/09/06 04:58:05;;;;;;;16.30;6.90;;;18.60;99.90;;;;;;5010637;28;20393;-68
2022/09/06 05:01:28;;;;;;;19.08;7.93;;;18.60;99.90;;;;;;5018620;28;20048;-69
2022/09/06 05:04:32;;;;;;;14.18;8.05;;;18.70;99.90;;;;;;5010546;28;20045;-68
2022/09/06 05:07:36;;;;;;;13.70;8.18;;;18.70;99.90;;;;;;5010991;28;20033;-68
2022/09/06 05:10:59;;;;;;;10.93;7.03;;;18.80;99.90;;;;;;5010219;28;20037;-68
2022/09/06 05:14:03;;;;;;;17.38;7.32;;;18.80;99.90;;;;;;5010977;28;20504;-69
2022/09/06 05:17:07;;;;;;;11.73;6.97;;;18.70;99.90;;;;;;5013367;28;20052;-68
2022/09/06 05:20:12;;;;;;;13.20;6.70;;;18.80;99.90;;;;;;5014321;28;20037;-68
2022/09/06 05:23:35;;;;;;;13.73;6.80;;;18.90;99.90;;;;;;5013916;28;20056;-68
2022/09/06 05:26:39;;;;;;;10.43;7.05;;;19.00;99.90;;;;;;5014565;28;20061;-68
2022/09/06 05:29:43;;;;;;;11.88;7.20;;;19.10;99.90;;;;;;5014687;28;20045;-68
2022/09/06 05:33:06;;;;;;;12.57;7.13;;;19.30;99.90;;;;;;5013405;28;20048;-68
2022/09/06 05:36:10;;;;;;;11.82;6.25;;;20.20;99.90;;;;;;5014459;28;20041;-68
2022/09/06 05:39:14;;;;;;;11.23;5.88;;;23.00;99.90;;;;;;5013714;28;20448;-68
2022/09/06 05:45:40;;;;;;;13.05;5.75;;;27.40;99.90;;;;;;5013916;28;20052;-68
2022/09/06 05:48:51;;;;;;;13.38;5.10;;;29.10;99.90;;;;;;5013593;28;20053;-68
2022/09/06 05:51:55;;;;;;;11.70;4.97;;;29.90;99.90;;;;;;5013712;28;20040;-68
2022/09/06 05:54:59;;;;;;;7.38;4.72;;;30.60;99.90;;;;;;5013189;28;20041;-68
2022/09/06 05:58:03;;;;;;;8.20;4.07;;;30.80;99.90;;;;;;5013341;28;20041;-69
2022/09/06 06:01:15;;;;;;;8.18;4.00;;;30.40;99.90;;;;;;5020838;28;20049;-69
2022/09/06 06:04:38;;;;;;;15.10;4.25;;;30.20;99.90;;;;;;5022729;28;20049;-69
2022/09/06 06:07:42;;;;;;;8.95;3.72;;;30.90;99.90;;;;;;5023023;28;20040;-69
2022/09/06 06:10:46;;;;;;;12.25;4.00;;;31.00;99.90;;;;;;5014234;28;20045;-69
2022/09/06 06:13:51;;;;;;;6.00;3.40;;;30.80;99.90;;;;;;5013662;28;20049;-69
2022/09/06 06:16:55;;;;;;;7.90;3.20;;;30.00;99.90;;;;;;5024685;28;20061;-69
2022/09/06 06:19:59;;;;;;;7.78;3.05;;;29.40;99.90;;;;;;5017124;28;20057;-68
2022/09/06 06:23:03;;;;;;;13.30;3.38;;;29.20;99.90;;;;;;5021873;28;20076;-68
2022/09/06 06:26:08;;;;;;;7.35;3.00;;;29.50;99.90;;;;;;5013329;28;20048;-69
2022/09/06 06:29:13;;;;;;;10.32;2.83;;;29.80;99.90;;;;;;5019030;28;20056;-69
2022/09/06 06:32:17;;;;;;;9.20;2.75;;;30.50;99.90;;;;;;5013389;28;20389;-68
2022/09/06 06:35:21;;;;;;;5.82;2.40;;;30.60;99.90;;;;;;5014644;28;20040;-69
2022/09/06 06:39:02;;;;;;;7.65;2.70;;;31.40;99.90;;;;;;5026653;28;20053;-69
2022/09/06 06:42:07;;;;;;;5.53;2.38;;;32.10;99.00;;;;;;5020501;28;20385;-69
2022/09/06 06:45:23;;;;;;;10.02;2.67;;;32.50;98.40;;;;;;5018837;28;20045;-69
2022/09/06 06:48:28;;;;;;;7.97;2.92;;;32.60;98.40;;;;;;5027064;28;20515;-69
2022/09/06 06:51:35;;;;;;;9.98;2.63;;;32.30;98.10;;;;;;5018927;28;20045;-69
2022/09/06 06:58:02;;;;;;;4.35;2.67;;;30.90;99.10;;;;;;5022921;28;20515;-69
2022/09/06 07:01:08;;;;;;;5.93;2.78;;;30.30;99.80;;;;;;5019333;28;20048;-69
2022/09/06 07:04:13;;;;;;;5.95;2.88;;;29.60;99.90;;;;;;5012020;28;20048;-69
2022/09/06 07:07:17;;;;;;;5.10;2.75;;;29.50;99.90;;;;;;5019623;28;20041;-69
2022/09/06 07:10:21;;;;;;;6.07;3.17;;;30.80;99.90;;;;;;5021763;28;20048;-69
2022/09/06 07:13:25;;;;;;;9.35;3.13;;;31.40;99.80;;;;;;5019710;28;20499;-69
2022/09/06 07:16:29;;;;;;;8.35;2.58;;;32.70;98.70;;;;;;5020561;28;20044;-69
2022/09/06 07:19:33;;;;;;;11.23;2.47;;;34.00;97.60;;;;;;5017779;28;20040;-69
2022/09/06 07:23:01;;;;;;;5.75;2.40;;;33.40;96.60;;;;;;5017294;28;20048;-69
2022/09/06 07:26:05;;;;;;;7.22;2.83;;;34.20;96.70;;;;;;5017958;28;20048;-69
2022/09/06 07:29:09;;;;;;;9.18;2.40;;;35.40;95.40;;;;;;5021623;28;20049;-69
2022/09/06 07:32:14;;;;;;;7.53;2.30;;;35.60;94.70;;;;;;5019866;28;20049;-69
2022/09/06 07:35:19;;;;;;;6.95;2.17;;;33.70;95.20;;;;;;5016976;28;20409;-69
2022/09/06 07:41:45;;;;;;;7.25;2.20;;;35.60;94.00;;;;;;5019623;28;20388;-68
2022/09/06 07:44:49;;;;;;;6.03;2.13;;;35.00;94.00;;;;;;5019618;28;20420;-69
2022/09/06 07:48:00;;;;;;;6.28;1.95;;;36.00;93.00;;;;;;5018301;28;20036;-69
2022/09/06 07:51:22;;;;;;;7.07;2.00;;;36.50;92.10;;;;;;5019554;28;20045;-69
2022/09/06 07:57:48;;;;;;;8.85;2.95;;;36.50;91.80;;;;;;5017729;28;20040;-69
2022/09/06 08:00:53;;;;;;;6.20;2.20;;;36.30;91.80;;;;;;5012541;28;20129;-69
2022/09/06 08:04:18;;;;;;;7.65;1.80;;;35.60;91.50;;;;;;5019251;28;20065;-70
2022/09/06 08:07:23;;;;;;;6.00;2.40;;;36.30;92.30;;;;;;5016068;28;20049;-69
2022/09/06 08:10:27;;;;;;;7.07;1.90;;;36.30;92.00;;;;;;5018924;28;20040;-69
2022/09/06 08:13:31;;;;;;;3.40;2.10;;;36.30;91.80;;;;;;5019786;28;20417;-69
2022/09/06 08:16:55;;;;;;;6.32;2.05;;;38.20;91.30;;;;;;5027536;28;20056;-67
2022/09/06 08:19:59;;;;;;;5.38;2.00;;;38.60;90.00;;;;;;5021363;28;20088;-70
2022/09/06 08:23:21;;;;;;;8.77;1.77;;;39.10;89.90;;;;;;5018643;28;20037;-69
2022/09/06 08:26:27;;;;;;;7.50;2.25;;;38.70;88.20;;;;;;5018340;28;20041;-68
2022/09/06 08:29:32;;;;;;;4.00;2.30;;;38.00;88.80;;;;;;5019478;28;20488;-69
2022/09/06 08:33:14;;;;;;;5.30;2.05;;;37.20;90.30;;;;;;5017978;28;20045;-69
2022/09/06 08:39:41;;;;;;;11.73;2.85;;;39.90;88.20;;;;;;5023478;28;20487;-69
2022/09/06 08:42:46;;;;;;;6.25;2.08;;;38.90;85.80;;;;;;5017917;28;20048;-70
2022/09/06 08:45:56;;;;;;;5.30;1.77;;;38.80;87.00;;;;;;5015613;28;20037;-68
2022/09/06 08:49:00;;;;;;;5.53;2.20;;;38.00;88.20;;;;;;5022978;28;20040;-69
2022/09/06 08:52:33;;;;;;;8.90;2.30;;;39.30;87.00;;;;;;5028207;28;20049;-69
2022/09/06 08:56:23;;;;;;;3.60;1.73;;;41.00;84.60;;;;;;5020988;28;20049;-68
2022/09/06 08:59:32;;;;;;;4.60;1.80;;;42.80;82.80;;;;;;5023246;28;20033;-69
2022/09/06 09:03:17;;;;;;;7.30;2.20;;;43.50;80.20;;;;;;5020486;28;20412;-68
2022/09/06 09:06:24;;;;;;;5.93;1.92;;;44.20;78.70;;;;;;5008727;28;20041;-69
2022/09/06 09:09:31;;;;;;;3.70;1.50;;;42.50;79.10;;;;;;5025127;28;20048;-69
2022/09/06 09:12:44;;;;;;;8.10;2.00;;;42.30;79.80;;;;;;5024494;28;20504;-69
2022/09/06 09:15:48;;;;;;;8.20;2.10;;;42.40;78.00;;;;;;5026514;28;20503;-70
2022/09/06 09:18:59;;;;;;;5.38;2.00;;;40.80;79.40;;;;;;5028715;28;20389;-69
2022/09/06 09:22:04;;;;;;;7.30;2.15;;;39.50;80.50;;;;;;5021041;28;20041;-68
2022/09/06 09:25:16;;;;;;;6.00;2.17;;;40.10;80.90;;;;;;5022940;28;20048;-69
2022/09/06 09:28:22;;;;;;;5.18;1.80;;;38.60;82.60;;;;;;5021467;28;20381;-69
2022/09/06 09:31:54;;;;;;;7.22;2.05;;;40.10;81.20;;;;;;5017744;28;20045;-69
2022/09/06 09:35:22;;;;;;;10.23;2.40;;;39.90;82.80;;;;;;5016974;28;20280;-69
2022/09/06 09:38:31;;;;;;;4.45;2.08;;;38.20;82.90;;;;;;5018254;28;20040;-69
2022/09/06 09:41:55;;;;;;;8.20;2.33;;;40.70;81.60;;;;;;5015899;28;20037;-68
2022/09/06 09:45:01;;;;;;;5.93;2.10;;;40.00;82.50;;;;;;5020667;28;20526;-69
2022/09/06 09:48:25;;;;;;;8.57;2.08;;;40.00;82.00;;;;;;5021705;28;20389;-69
2022/09/06 09:52:11;;;;;;;6.25;2.15;;;38.40;83.00;;;;;;5021572;28;20045;-69
2022/09/06 09:55:20;;;;;;;8.73;2.03;;;40.70;80.20;;;;;;5023684;28;20504;-68
2022/09/06 09:58:34;;;;;;;4.38;1.85;;;41.60;79.20;;;;;;5021437;28;20503;-70
2022/09/06 10:01:38;;;;;;;9.65;2.30;;;41.70;78.40;;;;;;5024103;28;20037;-68
2022/09/06 10:04:48;;;;;;;6.45;1.95;;;40.00;74.70;;;;;;5026000;28;20412;-69
2022/09/06 10:07:55;;;;;;;4.10;1.52;;;38.60;79.70;;;;;;5021160;28;20516;-68
2022/09/06 10:11:37;;;;;;;5.63;1.40;;;41.20;76.50;;;;;;5023930;28;20037;-68
2022/09/06 10:14:47;;;;;;;4.93;1.33;;;43.10;71.40;;;;;;5018844;28;20088;-68
2022/09/06 10:17:51;;;;;;;4.07;1.85;;;44.70;71.80;;;;;;5028560;28;20116;-68
2022/09/06 10:21:03;;;;;;;6.80;1.20;;;45.90;69.70;;;;;;5031217;28;20048;-68
2022/09/06 10:24:23;;;;;;;3.90;1.38;;;47.00;66.10;;;;;;5023613;28;20045;-69
2022/09/06 10:28:28;;;;;;;3.35;1.10;;;47.10;65.70;;;;;;5026182;28;20056;-67
2022/09/06 10:31:32;;;;;;;4.32;1.30;;;47.60;63.20;;;;;;5012714;28;20393;-69
2022/09/06 10:35:10;;;;;;;6.30;1.55;;;45.70;63.60;;;;;;5025273;28;20433;-67
2022/09/06 10:38:24;;;;;;;4.65;1.27;;;44.80;64.10;;;;;;5014512;28;20042;-68
2022/09/06 10:41:58;;;;;;;4.13;1.08;;;45.60;64.00;;;;;;5012058;28;20520;-68
2022/09/06 10:45:19;;;;;;;7.30;1.13;;;43.50;61.40;;;;;;5027291;28;20041;-68
2022/09/06 10:48:29;;;;;;;5.82;1.10;;;44.70;61.60;;;;;;5013580;28;20040;-67
2022/09/06 10:51:56;;;;;;;3.75;1.50;;;46.00;61.10;;;;;;5026631;28;20037;-68
2022/09/06 10:55:03;;;;;;;3.65;1.27;;;47.20;60.60;;;;;;5012939;28;20052;-67
2022/09/06 11:01:55;;;;;;;4.10;1.45;;;43.30;60.80;;;;;;5017633;28;20036;-67
2022/09/06 11:05:06;;;;;;;2.97;1.10;;;43.80;61.10;;;;;;5028508;28;20045;-67
2022/09/06 11:08:27;;;;;;;3.65;1.10;;;45.40;60.70;;;;;;5011558;28;20352;-67
2022/09/06 11:11:49;;;;;;;13.68;1.20;;;46.30;59.60;;;;;;5017359;28;20388;-66
2022/09/06 11:18:45;;;;;;;4.68;1.10;;;43.80;59.90;;;;;;5029179;28;20044;-68
2022/09/06 11:26:23;;;;;;;3.78;1.08;;;46.20;59.30;;;;;;5030403;28;20045;-68
2022/09/06 11:29:54;;;;;;;3.67;1.10;;;47.20;58.50;;;;;;5024165;28;20041;-67
2022/09/06 11:33:27;;;;;;;4.45;1.10;;;48.40;58.10;;;;;;5015572;28;20041;-68
2022/09/06 11:36:53;;;;;;;2.85;1.00;;;43.90;58.90;;;;;;5010980;28;20041;-67
2022/09/06 11:40:17;;;;;;;4.60;1.08;;;45.90;58.60;;;;;;5015248;28;20040;-68
2022/09/06 11:43:51;;;;;;;3.17;1.27;;;47.10;59.10;;;;;;5019533;28;20052;-68
2022/09/06 11:46:56;;;;;;;5.72;1.05;;;45.20;58.90;;;;;;5010893;28;20053;-67
2022/09/06 11:50:19;;;;;;;2.40;1.08;;;42.90;61.60;;;;;;5011809;28;20049;-67
2022/09/06 11:53:29;;;;;;;7.38;1.38;;;43.30;62.00;;;;;;5019822;28;20045;-67
2022/09/06 11:56:38;;;;;;;;;;;42.80;61.50;;;;;;5014691;28;20037;-68
2022/09/06 11:59:45;;;;;;;3.55;1.35;;;41.40;63.40;;;;;;5010977;28;19910;-68
2022/09/06 12:02:50;;;;;;;3.50;1.20;;;43.50;62.80;;;;;;5015243;28;20061;-68
2022/09/06 12:06:30;;;;;;;4.28;1.38;;;45.10;61.20;;;;;;5019080;28;20040;-68
2022/09/06 12:09:42;;;;;;;3.47;1.30;;;44.20;62.00;;;;;;5027881;28;20056;-68
2022/09/06 12:13:39;;;;;;;4.07;1.20;;;44.00;60.90;;;;;;5021900;28;20045;-67
2022/09/06 12:16:59;;;;;;;5.00;1.80;;;46.20;59.70;;;;;;5021515;28;20048;-67
2022/09/06 12:20:05;;;;;;;6.18;1.20;;;45.70;58.80;;;;;;5009366;28;20054;-68
2022/09/06 12:23:35;;;;;;;5.60;1.20;;;44.20;59.70;;;;;;5012088;28;20056;-67
2022/09/06 12:27:18;;;;;;;3.90;0.87;;;42.70;60.20;;;;;;5025545;28;20045;-68
2022/09/06 12:30:42;;;;;;;7.10;1.52;;;45.40;60.10;;;;;;5015780;28;20040;-66
2022/09/06 12:33:46;;;;;;;4.22;1.50;;;42.60;60.70;;;;;;5026921;28;20049;-68
2022/09/06 12:37:11;;;;;;;4.53;1.17;;;44.70;59.80;;;;;;5024517;28;20057;-68
2022/09/06 12:40:21;;;;;;;3.92;1.30;;;45.50;60.60;;;;;;5009886;28;20045;-68
2022/09/06 12:43:44;;;;;;;3.00;1.17;;;42.70;60.60;;;;;;5012000;28;20064;-67
2022/09/06 12:46:50;;;;;;;5.65;1.48;;;44.70;60.20;;;;;;5017506;28;20041;-68
2022/09/06 12:50:14;;;;;;;2.63;1.00;;;45.70;60.10;;;;;;5010452;28;20049;-68
2022/09/06 12:53:25;;;;;;;2.83;1.38;;;44.60;59.00;;;;;;5027876;28;20048;-68
2022/09/06 12:56:32;;;;;;;4.70;1.30;;;41.50;59.80;;;;;;5019847;28;20045;-67
2022/09/06 12:59:45;;;;;;;3.70;1.30;;;40.20;61.40;;;;;;5018248;28;20045;-67
2022/09/06 13:03:17;;;;;;;3.08;1.00;;;40.00;62.40;;;;;;5026918;28;20052;-68
2022/09/06 13:06:24;;;;;;;5.72;1.35;;;41.40;62.70;;;;;;5021680;28;20037;-66
2022/09/06 13:09:28;;;;;;;5.65;1.15;;;40.50;60.50;;;;;;5009722;28;20029;-67
2022/09/06 13:12:36;;;;;;;10.73;1.33;;;41.00;62.60;;;;;;5014436;28;20773;-68
2022/09/06 13:15:45;;;;;;;5.07;1.30;;;41.30;63.10;;;;;;5017915;28;20511;-68
2022/09/06 13:19:08;;;;;;;3.40;1.10;;;42.60;60.80;;;;;;5028230;28;20053;-68
2022/09/06 13:22:58;;;;;;;7.63;1.10;;;43.90;60.20;;;;;;5009825;28;20045;-67
2022/09/06 13:26:03;;;;;;;5.63;1.38;;;42.70;60.80;;;;;;5010468;28;20493;-67
2022/09/06 13:32:52;;;;;;;4.10;1.67;;;39.60;62.60;;;;;;5010953;28;20039;-69
2022/09/06 13:36:22;;;;;;;3.40;1.02;;;41.40;62.90;;;;;;5010033;28;20045;-68
2022/09/06 13:39:42;;;;;;;8.88;1.27;;;39.50;62.60;;;;;;5013064;28;20053;-68
2022/09/06 13:42:47;;;;;;;5.38;1.52;;;39.40;65.20;;;;;;5012503;28;20037;-67
2022/09/06 13:46:06;;;;;;;4.35;1.20;;;39.20;64.80;;;;;;5013516;28;20037;-67
2022/09/06 13:49:10;;;;;;;4.80;1.40;;;40.20;63.90;;;;;;5012865;28;20420;-68
2022/09/06 13:52:14;;;;;;;6.80;1.60;;;39.00;64.40;;;;;;5013006;28;20041;-67
2022/09/06 13:55:22;;;;;;;4.15;1.60;;;37.70;65.50;;;;;;5012786;28;20045;-66
2022/09/06 13:58:27;;;;;;;4.55;1.58;;;36.70;66.30;;;;;;5012588;28;20045;-67
2022/09/06 14:01:32;;;;;;;8.50;1.50;;;35.60;68.10;;;;;;5012876;28;20511;-68
2022/09/06 14:04:37;;;;;;;3.60;1.52;;;35.00;68.50;;;;;;5012592;28;20511;-67
2022/09/06 14:08:01;;;;;;;2.97;1.35;;;34.60;68.30;;;;;;5012410;28;20056;-67
2022/09/06 14:11:05;;;;;;;4.55;1.30;;;35.00;69.10;;;;;;5011842;28;20049;-67
2022/09/06 14:14:09;;;;;;;3.58;1.50;;;35.20;70.00;;;;;;5011151;28;20531;-66
2022/09/06 14:17:32;;;;;;;5.03;1.58;;;36.10;69.00;;;;;;5012568;28;20125;-67
2022/09/06 14:20:36;;;;;;;6.47;1.35;;;36.10;67.40;;;;;;5012628;28;20500;-67
2022/09/06 14:23:40;;;;;;;5.68;1.50;;;35.80;69.50;;;;;;5012042;28;20036;-67
2022/09/06 14:26:44;;;;;;;7.93;1.52;;;35.80;68.90;;;;;;5012272;28;20049;-67
2022/09/06 14:30:07;;;;;;;6.55;1.80;;;36.00;68.40;;;;;;5011839;28;20045;-68
2022/09/06 14:33:12;;;;;;;6.13;1.65;;;35.30;67.60;;;;;;5011891;28;20053;-65
2022/09/06 14:36:34;;;;;;;7.10;1.70;;;36.00;68.40;;;;;;5011873;28;20092;-67
2022/09/06 14:43:20;;;;;;;6.78;1.40;;;36.50;67.30;;;;;;5011771;28;20053;-68
2022/09/06 14:46:42;;;;;;;4.15;1.20;;;35.90;67.80;;;;;;5012013;28;20053;-68
2022/09/06 14:49:46;;;;;;;8.95;1.67;;;35.50;68.90;;;;;;5010327;28;20057;-68
2022/09/06 14:56:33;;;;;;;7.30;1.40;;;33.60;70.80;;;;;;5011619;28;20045;-67
2022/09/06 14:59:37;;;;;;;5.50;1.50;;;34.30;71.40;;;;;;5011412;28;20500;-68
2022/09/06 15:02:42;;;;;;;6.43;1.45;;;34.70;70.30;;;;;;5011731;28;20041;-67
2022/09/06 15:05:46;;;;;;;4.50;1.70;;;35.30;69.80;;;;;;5011495;28;20045;-67
2022/09/06 15:08:51;;;;;;;5.68;1.70;;;35.30;68.20;;;;;;5011549;28;20045;-67
2022/09/06 15:11:55;;;;;;;3.80;1.63;;;35.30;68.70;;;;;;5011376;28;20041;-67
2022/09/06 15:14:59;;;;;;;9.20;1.65;;;35.50;70.80;;;;;;5011449;28;20041;-68
2022/09/06 15:18:41;;;;;;;8.55;1.67;;;35.70;69.10;;;;;;5011597;28;20100;-68
2022/09/06 15:25:08;;;;;;;5.60;1.55;;;35.40;70.00;;;;;;5011273;28;20045;-67
2022/09/06 15:28:13;;;;;;;7.07;1.73;;;35.20;70.80;;;;;;5011290;28;20053;-68
2022/09/06 15:31:18;;;;;;;10.63;1.92;;;34.70;71.50;;;;;;5011015;28;20037;-68
2022/09/06 15:34:24;;;;;;;8.98;1.88;;;34.70;71.50;;;;;;5010427;28;20040;-68
2022/09/06 15:37:28;;;;;;;14.15;1.77;;;34.90;72.10;;;;;;5010887;28;20049;-67
2022/09/06 15:40:51;;;;;;;7.30;1.65;;;35.10;70.70;;;;;;5010987;28;20052;-67
2022/09/06 15:43:56;;;;;;;5.10;1.48;;;35.20;70.90;;;;;;5011006;28;20045;-68
2022/09/06 15:47:01;;;;;;;6.40;1.90;;;35.10;71.60;;;;;;5011096;28;20057;-68
2022/09/06 15:50:06;;;;;;;5.00;1.63;;;35.10;70.60;;;;;;5010761;28;20068;-68
2022/09/06 15:53:10;;;;;;;3.58;1.55;;;35.00;70.80;;;;;;5010767;28;20504;-67
2022/09/06 15:56:15;;;;;;;6.05;1.90;;;35.10;71.20;;;;;;5011565;28;20049;-68
2022/09/06 15:59:39;;;;;;;5.40;1.70;;;35.30;71.80;;;;;;5010481;28;20057;-68
2022/09/06 16:02:43;;;;;;;2.97;1.50;;;35.40;72.00;;;;;;5010515;28;20381;-67
2022/09/06 16:06:08;;;;;;;15.45;2.25;;;35.20;72.20;;;;;;5011032;28;20049;-67
2022/09/06 16:09:13;;;;;;;6.00;1.67;;;35.20;71.80;;;;;;5010478;28;20524;-68
2022/09/06 16:12:18;;;;;;;6.45;2.35;;;35.30;71.70;;;;;;5010628;28;20393;-68
2022/09/06 16:18:46;;;;;;;8.18;2.00;;;35.40;71.70;;;;;;5010492;28;20032;-68
2022/09/06 16:21:50;;;;;;;4.93;1.50;;;34.10;70.10;;;;;;5010478;28;20513;-67
2022/09/06 16:24:54;;;;;;;5.18;2.08;;;33.60;71.40;;;;;;5010226;28;20045;-67
2022/09/06 16:27:58;;;;;;;3.72;1.60;;;33.50;72.40;;;;;;5010412;28;20049;-67
2022/09/06 16:31:05;;;;;;;2.78;1.40;;;33.40;72.10;;;;;;5010534;28;20041;-67
2022/09/06 16:34:11;;;;;;;5.00;1.70;;;33.00;72.60;;;;;;5009126;28;20500;-68
2022/09/06 16:37:15;;;;;;;7.60;1.50;;;32.90;72.80;;;;;;5010479;28;20041;-67
2022/09/06 16:40:19;;;;;;;3.65;1.45;;;32.80;72.90;;;;;;5010450;28;20052;-67
2022/09/06 16:43:24;;;;;;;9.95;2.00;;;32.70;73.80;;;;;;5009545;28;20065;-67
2022/09/06 16:46:28;;;;;;;4.28;1.55;;;32.20;77.60;;;;;;5010278;28;20507;-67
2022/09/06 16:49:33;;;;;;;7.75;2.35;;;32.10;79.30;;;;;;5007865;28;20062;-68
2022/09/06 16:52:39;;;;;;;5.88;2.08;;;31.90;80.20;;;;;;5010331;28;20064;-67
2022/09/06 16:55:43;;;;;;;6.43;1.73;;;31.70;80.60;;;;;;5010182;28;20049;-67
2022/09/06 16:58:53;;;;;;;6.53;1.90;;;31.70;80.80;;;;;;5010228;28;20041;-68
2022/09/06 17:01:57;;;;;;;5.80;1.88;;;31.70;81.10;;;;;;5010225;28;20045;-69
2022/09/06 17:05:19;;;;;;;5.00;1.83;;;31.70;82.00;;;;;;5009234;28;20049;-70
2022/09/06 17:08:23;;;;;;;3.72;1.75;;;31.70;82.40;;;;;;5010282;28;20044;-69
2022/09/06 17:11:28;;;;;;;4.63;1.98;;;31.50;82.10;;;;;;5010265;28;20059;-69
2022/09/06 17:14:50;;;;;;;3.35;1.83;;;31.20;82.80;;;;;;5013356;28;20048;-69
2022/09/06 17:17:54;;;;;;;5.15;2.03;;;31.00;83.50;;;;;;5014112;28;20053;-69
2022/09/06 17:24:22;;;;;;;5.90;2.15;;;30.50;84.40;;;;;;5012830;28;20507;-68
2022/09/06 17:27:26;;;;;;;9.48;2.60;;;30.30;85.10;;;;;;5013440;28;20045;-69